Time;durP1;ratioP1;P1;durP2;ratioP2;P2;SDS_P1;SDS_P2;PMS_P1;PMS_P2;Temp;Humidity;BMP_temperature;BMP_pressure;BME280_temperature;BME280_humidity;BME280_pressure;Samples;Min_cycle;Max_cycle;Signal;HPM_P1;HPM_P2
2022/06/18 00:01:52;;;;;;;5.58;5.17;;;;;;;14.97;99.40;100465.45;1660147;85;21029;-68
2022/06/18 00:04:21;;;;;;;5.83;5.33;;;;;;;14.96;99.57;100461.95;1665222;85;21089;-69
2022/06/18 00:07:04;;;;;;;5.67;5.12;;;;;;;14.97;99.71;100461.42;1665695;85;21173;-69
2022/06/18 00:09:40;;;;;;;5.90;5.58;;;;;;;14.97;99.70;100454.72;1665002;85;21117;-70
2022/06/18 00:15:06;;;;;;;5.55;5.20;;;;;;;15.01;99.63;100442.50;1664366;85;21120;-70
2022/06/18 00:17:33;;;;;;;5.12;4.70;;;;;;;15.04;99.69;100449.33;1662300;84;21238;-70
2022/06/18 00:19:59;;;;;;;5.15;4.83;;;;;;;15.05;99.57;100447.77;1664337;85;21063;-71
2022/06/18 00:22:26;;;;;;;5.15;4.85;;;;;;;15.04;99.54;100442.09;1660665;85;21014;-71
2022/06/18 00:24:52;;;;;;;5.47;5.10;;;;;;;15.03;99.08;100439.61;1663255;85;21130;-70
2022/06/18 00:27:21;;;;;;;5.72;5.33;;;;;;;15.02;99.07;100436.11;1663778;85;22314;-70
2022/06/18 00:29:51;;;;;;;5.15;4.75;;;;;;;15.05;99.12;100441.56;1654253;85;21078;-71
2022/06/18 00:32:17;;;;;;;5.50;4.62;;;;;;;15.04;99.13;100428.66;1662236;85;21073;-69
2022/06/18 00:34:45;;;;;;;5.20;4.75;;;;;;;15.04;98.96;100423.30;1661594;84;21038;-69
2022/06/18 00:37:17;;;;;;;5.60;5.12;;;;;;;15.06;99.09;100423.90;1669845;85;21175;-70
2022/06/18 00:39:45;;;;;;;4.60;4.30;;;;;;;15.10;99.27;100425.64;1662986;85;21011;-70
2022/06/18 00:42:14;;;;;;;;;;;;;;;15.13;99.25;100427.90;1661126;85;21066;-71
2022/06/18 00:44:46;;;;;;;6.03;5.40;;;;;;;15.12;99.09;100431.08;1662139;84;20152;-69
2022/06/18 00:47:16;;;;;;;5.30;4.83;;;;;;;15.07;99.33;100427.40;1658492;85;21047;-70
2022/06/18 00:50:06;;;;;;;5.05;4.65;;;;;;;15.09;99.62;100433.41;1657405;85;21076;-70
2022/06/18 00:52:38;;;;;;;5.40;5.10;;;;;;;15.11;99.73;100436.69;1674817;84;21558;-70
2022/06/18 00:55:32;;;;;;;5.75;5.33;;;;;;;15.10;99.36;100435.03;1661870;84;21543;-70
2022/06/18 00:58:12;;;;;;;5.50;5.05;;;;;;;15.09;99.50;100436.91;1663222;85;21550;-69
2022/06/18 01:00:43;;;;;;;4.70;4.25;;;;;;;15.12;99.54;100435.64;1660049;85;21594;-70
2022/06/18 01:03:33;;;;;;;4.55;4.25;;;;;;;15.13;99.47;100430.59;1659772;85;21550;-69
2022/06/18 01:06:17;;;;;;;5.05;4.75;;;;;;;15.16;99.35;100425.61;1659334;85;21046;-70
2022/06/18 01:08:46;;;;;;;5.10;4.78;;;;;;;15.20;99.01;100427.34;1651672;85;21067;-69
2022/06/18 01:11:24;;;;;;;4.05;3.92;;;;;;;15.22;99.34;100430.63;1626470;84;21035;-68
2022/06/18 01:13:52;;;;;;;4.22;4.03;;;;;;;15.24;99.02;100428.55;1683791;83;21073;-69
2022/06/18 01:16:23;;;;;;;3.65;3.45;;;;;;;15.25;98.63;100428.84;1700157;83;21058;-71
2022/06/18 01:18:51;;;;;;;4.00;3.80;;;;;;;15.26;98.47;100427.81;1697775;83;21058;-69
2022/06/18 01:21:30;;;;;;;4.20;3.90;;;;;;;15.26;98.04;100429.69;1715793;83;21042;-70
2022/06/18 01:24:21;;;;;;;4.08;3.87;;;;;;;15.26;97.69;100427.81;1697509;84;21140;-69
2022/06/18 01:26:52;;;;;;;4.50;4.20;;;;;;;15.24;97.36;100426.36;1695061;83;21110;-69
2022/06/18 01:29:20;;;;;;;3.22;3.12;;;;;;;15.21;96.65;100423.60;1694652;83;21022;-70
2022/06/18 01:31:49;;;;;;;3.95;3.75;;;;;;;15.15;96.43;100421.80;1697169;83;21057;-69
2022/06/18 01:34:15;;;;;;;4.20;4.00;;;;;;;15.14;96.78;100425.50;1701252;83;21141;-69
2022/06/18 01:36:45;;;;;;;3.85;3.65;;;;;;;15.14;96.86;100422.81;1697050;83;21223;-69
2022/06/18 01:39:17;;;;;;;4.00;3.77;;;;;;;15.12;96.30;100424.38;1692418;83;21625;-69
2022/06/18 01:41:49;;;;;;;4.17;3.95;;;;;;;15.09;95.89;100419.98;1698910;83;21046;-69
2022/06/18 01:44:35;;;;;;;4.00;3.70;;;;;;;15.06;96.03;100424.43;1667390;84;21172;-69
2022/06/18 01:47:25;;;;;;;4.30;4.10;;;;;;;15.07;96.26;100424.22;1661683;84;21019;-69
2022/06/18 01:50:12;;;;;;;3.95;3.65;;;;;;;15.05;95.68;100421.42;1663811;84;21100;-69
2022/06/18 01:52:46;;;;;;;3.10;2.92;;;;;;;14.99;95.18;100415.91;1668635;84;21054;-70
2022/06/18 01:55:23;;;;;;;4.45;4.15;;;;;;;14.95;95.06;100420.03;1666104;84;21034;-72
2022/06/18 01:57:54;;;;;;;3.30;3.10;;;;;;;14.92;95.14;100418.33;1651215;85;21514;-69
2022/06/18 02:00:26;;;;;;;2.90;2.70;;;;;;;14.94;95.86;100410.35;1662842;84;21061;-71
2022/06/18 02:02:57;;;;;;;4.08;3.40;;;;;;;14.95;95.10;100412.51;1671381;84;21014;-69
2022/06/18 02:05:25;;;;;;;3.98;3.67;;;;;;;14.94;95.02;100409.01;1654519;84;21116;-69
2022/06/18 02:07:52;;;;;;;3.80;3.50;;;;;;;14.96;95.15;100405.59;1660324;84;22099;-70
2022/06/18 02:10:25;;;;;;;3.70;3.50;;;;;;;14.99;95.07;100407.00;1663323;84;21038;-69
2022/06/18 02:12:52;;;;;;;4.20;3.95;;;;;;;15.04;94.86;100407.72;1662750;84;21065;-69
2022/06/18 02:15:29;;;;;;;3.47;3.25;;;;;;;15.08;94.61;100402.22;1670808;84;21029;-69
2022/06/18 02:18:02;;;;;;;5.08;3.62;;;;;;;15.09;94.26;100398.50;1656167;84;21082;-69
2022/06/18 02:20:33;;;;;;;3.52;3.42;;;;;;;15.09;94.29;100405.22;1682128;84;21032;-68
2022/06/18 02:23:00;;;;;;;3.75;3.47;;;;;;;15.09;94.50;100409.24;1621541;86;21159;-71
2022/06/18 02:25:30;;;;;;;3.70;3.50;;;;;;;15.10;94.74;100409.53;1637007;86;21554;-69
2022/06/18 02:28:11;;;;;;;3.10;3.00;;;;;;;15.13;94.84;100414.48;1643055;86;21102;-70
2022/06/18 02:30:38;;;;;;;3.62;3.40;;;;;;;15.16;94.46;100410.84;1641650;86;21595;-69
2022/06/18 02:33:19;;;;;;;3.05;2.87;;;;;;;15.18;93.77;100415.97;1632988;86;21629;-70
2022/06/18 02:35:46;;;;;;;3.87;3.67;;;;;;;15.15;93.42;100415.89;1593190;88;21243;-69
2022/06/18 02:38:21;;;;;;;3.47;3.27;;;;;;;15.12;93.41;100419.53;1588925;88;21061;-69
2022/06/18 02:40:48;;;;;;;3.62;3.42;;;;;;;15.10;93.55;100412.21;1598253;88;21199;-69
2022/06/18 02:43:19;;;;;;;3.42;3.22;;;;;;;15.09;93.72;100412.74;1603972;88;21137;-70
2022/06/18 02:45:53;;;;;;;3.80;3.58;;;;;;;15.10;94.05;100414.38;1661363;84;21038;-69
2022/06/18 02:48:28;;;;;;;3.40;3.22;;;;;;;15.13;94.72;100417.98;1681442;85;21109;-69
2022/06/18 02:50:59;;;;;;;3.90;3.07;;;;;;;14.94;94.91;100377.33;1671493;85;21221;-69
2022/06/18 02:53:28;;;;;;;3.77;3.33;;;;;;;15.22;94.40;100414.52;1643105;85;21093;-69
2022/06/18 02:56:03;;;;;;;3.83;3.47;;;;;;;15.23;94.15;100418.84;1689707;83;21647;-69
2022/06/18 02:58:39;;;;;;;3.90;3.50;;;;;;;15.28;94.24;100427.08;1692468;85;21029;-70
2022/06/18 03:01:10;;;;;;;3.47;3.30;;;;;;;15.31;93.32;100423.97;1685127;83;20994;-69
2022/06/18 03:03:42;;;;;;;4.37;3.77;;;;;;;15.31;92.66;100421.28;1694365;83;21070;-69
2022/06/18 03:06:10;;;;;;;3.67;3.50;;;;;;;15.31;92.83;100422.63;1694202;83;21041;-70
2022/06/18 03:08:37;;;;;;;3.45;3.25;;;;;;;15.34;92.60;100426.72;1692676;83;21023;-70
2022/06/18 03:13:54;;;;;;;4.35;3.92;;;;;;;15.47;92.48;100429.84;1656413;85;21092;-69
2022/06/18 03:16:22;;;;;;;3.80;3.60;;;;;;;15.52;92.28;100423.27;1664639;85;21075;-70
2022/06/18 03:18:53;;;;;;;4.75;4.35;;;;;;;15.56;92.32;100428.53;1642957;87;21149;-71
2022/06/18 03:21:27;;;;;;;4.10;3.85;;;;;;;15.58;92.19;100429.13;1652437;85;21031;-71
2022/06/18 03:23:54;;;;;;;4.65;4.40;;;;;;;15.63;92.90;100431.15;1628256;86;21040;-70
2022/06/18 03:26:21;;;;;;;5.05;4.75;;;;;;;15.71;92.16;100429.55;1648768;85;21059;-70
2022/06/18 03:28:49;;;;;;;5.70;5.25;;;;;;;15.70;91.60;100432.73;1645117;85;21066;-69
2022/06/18 03:31:16;;;;;;;4.78;4.42;;;;;;;15.69;91.80;100441.85;1632876;86;21087;-70
2022/06/18 03:33:42;;;;;;;;;;;;;;;15.68;92.06;100426.76;1652984;85;21081;-69
2022/06/18 03:36:11;;;;;;;4.60;4.40;;;;;;;15.72;92.21;100431.17;1654697;85;20189;-69
2022/06/18 03:38:39;;;;;;;5.90;5.50;;;;;;;15.67;93.23;100429.66;1640577;86;21587;-70
2022/06/18 03:41:08;;;;;;;6.22;5.83;;;;;;;15.67;93.23;100434.53;1632620;86;21166;-69
2022/06/18 03:43:35;;;;;;;7.30;6.80;;;;;;;15.75;93.28;100432.94;1628327;86;21633;-70
2022/06/18 03:46:10;;;;;;;7.50;6.90;;;;;;;15.78;92.71;100433.01;1651615;86;21039;-69
2022/06/18 03:48:49;;;;;;;8.25;7.65;;;;;;;15.75;92.33;100436.16;1664089;84;21061;-70
2022/06/18 03:51:17;;;;;;;8.83;8.08;;;;;;;15.69;91.96;100429.77;1661518;84;21062;-70
2022/06/18 03:53:45;;;;;;;10.25;8.13;;;;;;;15.63;92.93;100434.65;1656595;84;21059;-69
2022/06/18 03:56:16;;;;;;;12.70;9.23;;;;;;;15.63;92.93;100434.65;1658809;84;21133;-70
2022/06/18 03:58:44;;;;;;;10.18;9.28;;;;;;;15.61;93.73;100431.89;1661037;84;21523;-70
2022/06/18 04:01:15;;;;;;;9.83;9.13;;;;;;;15.67;94.00;100433.69;1660650;84;21085;-71
2022/06/18 04:03:42;;;;;;;10.40;9.30;;;;;;;15.71;93.15;100429.55;1640062;86;21109;-70
2022/06/18 04:06:14;;;;;;;9.93;9.18;;;;;;;15.68;92.86;100432.13;1649592;84;21103;-71
2022/06/18 04:08:39;;;;;;;9.83;8.93;;;;;;;15.68;93.51;100436.16;1658595;84;21198;-71
2022/06/18 04:11:10;;;;;;;10.68;9.65;;;;;;;15.68;93.17;100434.01;1662391;84;21075;-69
2022/06/18 04:13:37;;;;;;;10.00;9.30;;;;;;;15.70;93.64;100434.08;1673364;84;21146;-70
2022/06/18 04:16:10;;;;;;;10.15;9.35;;;;;;;15.76;93.48;100435.09;1651970;84;21603;-69
2022/06/18 04:18:40;;;;;;;11.20;10.13;;;;;;;15.80;93.75;100434.14;1650164;86;21065;-70
2022/06/18 04:21:10;;;;;;;10.70;9.80;;;;;;;15.84;93.39;100438.02;1660766;85;21050;-70
2022/06/18 04:23:39;;;;;;;12.90;10.23;;;;;;;15.89;93.15;100439.01;1665335;84;21114;-69
2022/06/18 04:26:06;;;;;;;11.05;10.00;;;;;;;15.96;92.62;100442.46;1622933;86;21132;-71
2022/06/18 04:28:33;;;;;;;11.53;10.63;;;;;;;15.99;92.04;100441.19;1625539;86;21683;-71
2022/06/18 04:31:04;;;;;;;11.50;10.50;;;;;;;16.01;92.19;100440.47;1618759;86;21051;-70
2022/06/18 04:33:36;;;;;;;10.18;9.28;;;;;;;16.06;92.03;100448.67;1645802;84;21065;-70
2022/06/18 04:36:29;;;;;;;10.15;9.33;;;;;;;16.12;92.29;100444.27;1682311;84;21145;-71
2022/06/18 04:38:57;;;;;;;11.05;9.98;;;;;;;16.22;92.68;100451.82;1683192;84;21073;-72
2022/06/18 04:41:40;;;;;;;11.35;10.45;;;;;;;16.33;91.40;100440.32;1682320;84;21122;-71
2022/06/18 04:44:12;;;;;;;14.50;13.13;;;;;;;16.49;91.13;100439.73;1681267;84;21066;-71
2022/06/18 04:46:39;;;;;;;12.80;11.68;;;;;;;16.59;90.11;100439.73;1659622;84;21531;-72
2022/06/18 04:49:06;;;;;;;12.03;11.12;;;;;;;16.64;89.21;100445.27;1682895;84;21034;-71
2022/06/18 04:51:32;;;;;;;;;;;;;;;16.72;88.90;100453.84;1688116;84;21125;-71
2022/06/18 04:53:58;;;;;;;11.33;10.43;;;;;;;16.80;88.73;100454.08;1653093;84;20244;-72
2022/06/18 04:56:27;;;;;;;11.65;10.50;;;;;;;16.85;88.81;100458.80;1685293;84;21081;-66
2022/06/18 04:58:53;;;;;;;12.03;10.93;;;;;;;16.94;88.39;100456.09;1678224;84;21108;-72
2022/06/18 05:01:25;;;;;;;13.83;12.58;;;;;;;16.98;87.07;100453.77;1689267;84;21073;-65
2022/06/18 05:03:56;;;;;;;12.82;11.60;;;;;;;17.01;86.78;100457.33;1681626;84;21086;-66
2022/06/18 05:06:43;;;;;;;14.07;12.78;;;;;;;17.16;86.82;100456.42;1691409;84;21541;-66
2022/06/18 05:09:13;;;;;;;38.05;34.40;;;;;;;17.37;86.26;100463.70;1687642;84;21669;-67
2022/06/18 05:11:57;;;;;;;17.92;16.42;;;;;;;17.67;86.04;100464.98;1680930;84;21015;-69
2022/06/18 05:14:27;;;;;;;17.65;15.72;;;;;;;17.90;83.37;100475.00;1644218;85;21183;-67
2022/06/18 05:16:57;;;;;;;21.35;19.55;;;;;;;17.97;81.01;100474.37;1672108;85;21551;-68
2022/06/18 05:19:29;;;;;;;15.75;14.43;;;;;;;17.97;81.12;100473.02;1665637;85;21142;-75
2022/06/18 05:21:58;;;;;;;22.60;20.32;;;;;;;18.15;80.37;100477.46;1665368;85;21062;-81
2022/06/18 05:24:26;;;;;;;12.25;11.18;;;;;;;18.45;78.92;100484.59;1663437;85;21098;-79
2022/06/18 05:26:56;;;;;;;9.63;8.93;;;;;;;18.80;78.84;100485.91;1671430;85;21032;-72
2022/06/18 05:29:23;;;;;;;10.13;9.40;;;;;;;19.20;78.36;100481.54;1664710;85;21039;-68
2022/06/18 05:31:51;;;;;;;9.83;9.00;;;;;;;19.47;77.35;100478.23;1665388;85;21130;-65
2022/06/18 05:34:19;;;;;;;8.80;8.18;;;;;;;19.54;74.29;100475.65;1663405;85;21082;-74
2022/06/18 05:36:47;;;;;;;10.05;9.20;;;;;;;19.40;74.62;100484.61;1660491;85;21115;-67
2022/06/18 05:39:17;;;;;;;9.18;8.55;;;;;;;19.19;75.19;100482.08;1668433;86;21114;-66
2022/06/18 05:41:49;;;;;;;8.68;8.08;;;;;;;19.10;75.65;100488.93;1662419;85;21027;-67
2022/06/18 05:44:15;;;;;;;8.00;7.50;;;;;;;19.11;76.04;100487.84;1669723;85;21532;-66
2022/06/18 05:46:41;;;;;;;7.90;6.92;;;;;;;19.28;76.41;100487.08;1669094;85;21130;-67
2022/06/18 05:49:09;;;;;;;7.58;6.85;;;;;;;19.55;75.34;100489.98;1658738;85;21040;-66
2022/06/18 05:51:37;;;;;;;7.60;7.00;;;;;;;19.87;73.62;100488.10;1658393;85;21019;-65
2022/06/18 05:54:05;;;;;;;7.28;6.80;;;;;;;20.09;72.07;100488.18;1669235;85;21091;-72
2022/06/18 05:56:40;;;;;;;6.70;6.15;;;;;;;20.30;72.67;100487.94;1631937;86;21019;-73
2022/06/18 05:59:11;;;;;;;7.55;7.05;;;;;;;20.48;70.53;100486.30;1656369;85;21036;-81
2022/06/18 06:01:39;;;;;;;6.83;6.33;;;;;;;20.40;70.18;100459.67;1663868;85;21123;-73
2022/06/18 06:04:05;;;;;;;7.55;6.92;;;;;;;20.54;69.87;100487.19;1653938;85;21480;-74
2022/06/18 06:06:34;;;;;;;7.42;6.90;;;;;;;20.19;68.99;100437.73;1660379;85;21075;-74
2022/06/18 06:09:00;;;;;;;6.30;5.90;;;;;;;20.27;69.19;100483.85;1670282;85;21288;-73
2022/06/18 06:11:32;;;;;;;6.58;6.17;;;;;;;20.10;70.62;100481.69;1672541;85;21006;-73
2022/06/18 06:14:01;;;;;;;6.65;5.97;;;;;;;20.01;70.69;100487.53;1669578;85;21130;-73
2022/06/18 06:16:28;;;;;;;6.33;5.83;;;;;;;19.96;70.47;100490.69;1659581;85;21020;-74
2022/06/18 06:18:57;;;;;;;6.35;5.97;;;;;;;19.86;72.07;100492.70;1650371;85;21189;-74
2022/06/18 06:21:23;;;;;;;5.87;5.55;;;;;;;19.96;72.47;100498.80;1654564;85;21169;-74
2022/06/18 06:23:50;;;;;;;;;;;;;;;20.17;71.75;100495.87;1618494;86;21100;-75
2022/06/18 06:26:24;;;;;;;5.75;5.35;;;;;;;20.33;70.27;100495.03;1609833;88;20185;-74
2022/06/18 06:28:51;;;;;;;5.12;4.83;;;;;;;20.31;70.42;100499.06;1612382;88;21573;-73
2022/06/18 06:31:18;;;;;;;5.20;4.90;;;;;;;20.23;70.00;100502.47;1619748;88;21122;-74
2022/06/18 06:33:45;;;;;;;5.65;5.25;;;;;;;20.06;70.66;100500.84;1638816;86;21158;-74
2022/06/18 06:36:13;;;;;;;5.65;5.15;;;;;;;19.93;71.08;100504.18;1651737;86;21077;-71
2022/06/18 06:38:40;;;;;;;5.60;5.20;;;;;;;19.83;70.88;100504.84;1678977;85;21588;-74
2022/06/18 06:41:19;;;;;;;5.08;4.78;;;;;;;19.81;71.58;100500.19;1678372;85;21059;-76
2022/06/18 06:43:47;;;;;;;6.08;5.72;;;;;;;19.85;71.07;100493.75;1665566;85;21078;-77
2022/06/18 06:46:15;;;;;;;4.85;4.55;;;;;;;19.88;71.86;100494.63;1690080;83;21130;-76
2022/06/18 06:48:44;;;;;;;5.33;4.92;;;;;;;19.96;71.12;100492.84;1690240;83;21555;-78
2022/06/18 06:51:21;;;;;;;5.60;5.30;;;;;;;20.05;70.84;100497.86;1688105;84;21185;-75
2022/06/18 06:53:47;;;;;;;6.25;4.62;;;;;;;20.08;70.27;100500.05;1694686;84;20963;-69
2022/06/18 06:59:04;;;;;;;8.13;5.45;;;;;;;19.91;70.59;100504.13;1688781;84;21034;-77
2022/06/18 07:01:32;;;;;;;5.22;4.97;;;;;;;19.78;71.14;100503.40;1688125;84;21030;-75
2022/06/18 07:03:58;;;;;;;4.72;4.42;;;;;;;19.80;70.95;100508.03;1692491;84;21141;-74
2022/06/18 07:06:25;;;;;;;4.40;4.17;;;;;;;19.95;71.35;100505.30;1698997;83;22280;-76
2022/06/18 07:08:52;;;;;;;;;;;;;;;20.29;71.03;100501.20;1697872;83;21145;-76
2022/06/18 07:11:18;;;;;;;4.70;4.20;;;;;;;20.77;68.11;100493.73;1690922;83;20405;-75
2022/06/18 07:13:44;;;;;;;4.25;4.00;;;;;;;21.13;68.00;100496.03;1693324;83;21047;-75
2022/06/18 07:16:12;;;;;;;;;;;;;;;21.54;64.27;100507.32;1682411;83;21121;-80
2022/06/18 07:18:40;;;;;;;5.20;4.65;;;;;;;21.92;61.48;100491.34;1691843;84;20131;-72
2022/06/18 07:21:12;;;;;;;5.10;4.55;;;;;;;22.18;60.63;100497.52;1690925;83;21026;-59
2022/06/18 07:23:39;;;;;;;4.60;4.30;;;;;;;22.44;59.54;100497.16;1658466;84;21126;-82
2022/06/18 07:26:08;;;;;;;4.78;4.58;;;;;;;22.42;58.78;100510.99;1636916;85;21059;-77
2022/06/18 07:28:34;;;;;;;4.25;4.05;;;;;;;22.45;59.73;100496.06;1670560;86;21055;-78
2022/06/18 07:31:01;;;;;;;6.72;4.75;;;;;;;22.48;59.99;100506.41;1667643;85;21099;-69
2022/06/18 07:33:32;;;;;;;5.87;5.47;;;;;;;22.51;59.57;100505.34;1675238;85;21157;-71
2022/06/18 07:35:58;;;;;;;5.95;5.53;;;;;;;22.43;59.10;100514.52;1684132;84;21114;-69
2022/06/18 07:38:25;;;;;;;5.92;5.40;;;;;;;22.48;59.74;100515.91;1681877;84;21018;-75
2022/06/18 07:40:56;;;;;;;5.15;4.72;;;;;;;22.29;59.75;100508.20;1676912;84;21034;-84
2022/06/18 07:43:36;;;;;;;5.10;4.90;;;;;;;22.11;60.47;100505.88;1689431;84;21092;-78
2022/06/18 07:46:05;;;;;;;4.00;3.67;;;;;;;21.95;60.81;100514.45;1687188;83;21078;-68
2022/06/18 07:48:33;;;;;;;4.62;4.25;;;;;;;21.73;59.76;100516.70;1683430;84;21126;-71
2022/06/18 07:51:03;;;;;;;4.22;3.92;;;;;;;21.42;59.85;100518.30;1684435;83;21069;-69
2022/06/18 07:53:30;;;;;;;3.95;3.65;;;;;;;21.13;61.08;100524.49;1674955;84;21038;-67
2022/06/18 07:55:56;;;;;;;4.00;3.80;;;;;;;20.97;61.82;100518.09;1687281;84;21165;-68
2022/06/18 07:58:26;;;;;;;4.03;3.83;;;;;;;20.91;62.10;100515.05;1683785;84;21070;-70
2022/06/18 08:00:54;;;;;;;3.30;3.12;;;;;;;20.92;62.69;100509.89;1654841;85;21105;-70
2022/06/18 08:03:21;;;;;;;3.72;3.52;;;;;;;20.93;62.88;100516.96;1689911;84;21101;-68
2022/06/18 08:05:49;;;;;;;3.10;3.00;;;;;;;21.08;61.70;100506.81;1697253;84;21646;-70
2022/06/18 08:08:16;;;;;;;3.70;3.50;;;;;;;21.17;61.53;100505.28;1640567;85;21675;-65
2022/06/18 08:10:47;;;;;;;3.27;3.17;;;;;;;21.25;60.79;100512.14;1691776;83;21606;-68
2022/06/18 08:13:13;;;;;;;3.52;3.35;;;;;;;21.26;59.42;100514.60;1680495;84;21077;-66
2022/06/18 08:15:42;;;;;;;3.12;2.92;;;;;;;21.13;60.60;100514.45;1671220;85;21073;-68
2022/06/18 08:18:08;;;;;;;3.92;3.70;;;;;;;20.98;60.75;100517.84;1688062;84;21070;-67
2022/06/18 08:20:36;;;;;;;4.22;4.03;;;;;;;20.97;61.88;100515.37;1672455;85;21562;-64
2022/06/18 08:23:04;;;;;;;3.37;3.27;;;;;;;21.05;62.13;100524.41;1648279;86;21161;-68
2022/06/18 08:25:35;;;;;;;5.53;3.85;;;;;;;21.14;63.04;100526.14;1679570;84;20999;-65
2022/06/18 08:28:05;;;;;;;3.37;3.12;;;;;;;21.24;62.14;100512.69;1683394;84;21031;-65
2022/06/18 08:30:32;;;;;;;3.12;3.02;;;;;;;21.47;61.02;100513.48;1669035;85;21077;-64
2022/06/18 08:32:59;;;;;;;2.80;2.60;;;;;;;21.65;60.18;100517.73;1645491;85;21162;-67
2022/06/18 08:35:26;;;;;;;2.70;2.50;;;;;;;21.78;59.03;100510.52;1693127;83;21128;-65
2022/06/18 08:37:54;;;;;;;3.12;2.92;;;;;;;21.88;58.47;100507.87;1705692;83;21054;-69
2022/06/18 08:40:35;;;;;;;6.03;2.77;;;;;;;21.94;58.40;100507.38;1695266;83;21014;-66
2022/06/18 08:43:07;;;;;;;3.27;3.10;;;;;;;21.88;58.38;100511.95;1698390;83;21066;-65
2022/06/18 08:45:59;;;;;;;3.60;3.40;;;;;;;21.80;58.80;100511.08;1684574;84;21089;-66
2022/06/18 08:49:01;;;;;;;3.52;2.87;;;;;;;21.61;59.92;100516.08;1693569;83;21090;-65
2022/06/18 08:51:55;;;;;;;3.72;3.42;;;;;;;21.32;60.58;100514.96;1697438;84;21137;-66
2022/06/18 08:54:27;;;;;;;3.40;3.22;;;;;;;21.17;61.29;100517.48;1691294;83;21192;-67
2022/06/18 08:57:05;;;;;;;3.47;3.27;;;;;;;21.16;61.80;100524.80;1693720;83;21053;-66
2022/06/18 08:59:43;;;;;;;20.97;3.33;;;;;;;21.25;61.67;100517.05;1648193;86;21066;-61
2022/06/18 09:02:32;;;;;;;3.02;2.92;;;;;;;21.34;61.63;100511.97;1674877;84;21046;-62
2022/06/18 09:05:32;;;;;;;4.25;3.08;;;;;;;21.43;60.88;100506.37;1673069;84;21145;-60
2022/06/18 09:08:25;;;;;;;10.18;3.17;;;;;;;21.42;60.05;100515.59;1685154;84;21065;-60
2022/06/18 09:11:16;;;;;;;3.60;2.50;;;;;;;21.36;60.44;100510.66;1669892;85;21049;-64
2022/06/18 09:14:02;;;;;;;3.10;2.92;;;;;;;21.31;60.24;100518.73;1689971;84;21106;-59
2022/06/18 09:16:43;;;;;;;3.10;2.10;;;;;;;21.31;60.44;100523.34;1667630;85;21137;-59
2022/06/18 09:19:16;;;;;;;3.42;3.22;;;;;;;21.33;60.29;100523.91;1687876;84;21105;-58
2022/06/18 09:21:50;;;;;;;2.55;2.15;;;;;;;21.31;59.82;100539.06;1673168;85;21074;-63
2022/06/18 09:24:39;;;;;;;3.40;2.05;;;;;;;21.19;59.69;100539.22;1685589;84;21415;-64
2022/06/18 09:27:20;;;;;;;1.47;1.37;;;;;;;20.96;59.90;100548.95;1672589;84;21672;-65
2022/06/18 09:30:02;;;;;;;1.92;1.47;;;;;;;20.79;59.13;100540.38;1684448;83;21037;-64
2022/06/18 09:32:40;;;;;;;1.82;1.65;;;;;;;20.75;59.01;100544.63;1664859;85;21553;-65
2022/06/18 09:35:30;;;;;;;2.20;1.55;;;;;;;20.77;59.73;100538.42;1684731;84;21082;-63
2022/06/18 09:38:25;;;;;;;1.30;1.27;;;;;;;20.82;58.58;100532.27;1667234;85;21670;-64
2022/06/18 09:40:56;;;;;;;1.17;1.00;;;;;;;20.83;59.19;100531.72;1686337;84;21042;-65
2022/06/18 09:43:54;;;;;;;1.62;1.10;;;;;;;20.75;58.37;100535.14;1649005;85;21051;-64
2022/06/18 09:46:26;;;;;;;1.52;1.20;;;;;;;20.69;57.92;100523.97;1683781;84;21083;-65
2022/06/18 09:48:53;;;;;;;3.40;1.50;;;;;;;20.67;58.33;100528.02;1668313;84;21003;-62
2022/06/18 09:51:30;;;;;;;1.50;1.40;;;;;;;20.67;58.60;100534.78;1689887;84;21091;-62
2022/06/18 09:54:02;;;;;;;1.22;1.20;;;;;;;20.57;58.33;100527.31;1691730;84;21169;-64
2022/06/18 09:56:35;;;;;;;1.02;1.02;;;;;;;20.45;58.71;100545.54;1685421;84;21161;-62
2022/06/18 09:59:07;;;;;;;1.75;1.65;;;;;;;20.36;59.79;100533.80;1691076;84;21046;-62
2022/06/18 10:01:55;;;;;;;1.75;1.65;;;;;;;20.39;60.04;100537.88;1688118;84;21539;-64
2022/06/18 10:07:23;;;;;;;2.10;1.12;;;;;;;20.36;59.40;100528.89;1685290;84;21108;-61
2022/06/18 10:09:56;;;;;;;1.15;0.70;;;;;;;20.36;60.06;100523.48;1668137;84;21511;-62
2022/06/18 10:12:33;;;;;;;1.95;0.70;;;;;;;20.39;59.87;100529.76;1653796;85;21039;-64
2022/06/18 10:15:06;;;;;;;0.90;0.90;;;;;;;20.40;58.20;100529.52;1679551;84;21050;-65
2022/06/18 10:18:02;;;;;;;0.30;0.30;;;;;;;20.44;58.01;100521.72;1669763;85;21490;-63
2022/06/18 10:20:58;;;;;;;0.78;0.78;;;;;;;20.46;57.01;100520.12;1686913;84;21209;-62
2022/06/18 10:24:03;;;;;;;0.85;0.85;;;;;;;20.50;55.97;100525.31;1671490;84;21634;-63
2022/06/18 10:26:43;;;;;;;1.55;1.12;;;;;;;20.58;56.18;100518.10;1682392;83;21212;-62
2022/06/18 10:29:29;;;;;;;0.72;0.50;;;;;;;20.76;56.20;100514.31;1690367;84;21133;-63
2022/06/18 10:32:07;;;;;;;2.20;0.50;;;;;;;20.92;55.24;100511.25;1694978;84;21165;-64
2022/06/18 10:35:55;;;;;;;0.62;0.40;;;;;;;21.15;53.82;100511.50;1753319;77;22899;-62
2022/06/18 10:38:47;;;;;;;1.10;0.37;;;;;;;21.19;51.74;100512.11;1730860;81;21076;-62
2022/06/18 10:41:43;;;;;;;0.60;0.60;;;;;;;21.26;52.17;100517.86;1699975;81;21555;-63
2022/06/18 10:44:22;;;;;;;0.75;0.50;;;;;;;21.30;52.25;100520.34;1717567;80;21049;-65
2022/06/18 10:47:13;;;;;;;0.93;0.88;;;;;;;21.24;53.44;100527.59;1733841;81;21056;-62
2022/06/18 10:49:39;;;;;;;6.42;0.95;;;;;;;21.18;56.43;100545.69;1722592;81;21469;-62
2022/06/18 10:52:24;;;;;;;1.82;0.75;;;;;;;20.93;57.42;100525.09;1730777;81;21005;-61
2022/06/18 10:55:06;;;;;;;0.62;0.40;;;;;;;20.77;56.75;100523.52;1726351;81;20985;-62
2022/06/18 10:57:32;;;;;;;0.42;0.42;;;;;;;20.69;55.95;100512.33;1724993;81;20929;-64
2022/06/18 11:00:14;;;;;;;1.07;0.70;;;;;;;20.67;55.36;100512.57;1730465;81;21116;-64
2022/06/18 11:02:41;;;;;;;1.55;0.37;;;;;;;20.70;54.08;100515.30;1717109;81;21618;-62
2022/06/18 11:05:24;;;;;;;0.80;0.33;;;;;;;20.70;54.03;100522.91;1724818;81;21068;-61
2022/06/18 11:07:53;;;;;;;0.98;0.40;;;;;;;20.64;56.08;100514.95;1735450;81;21059;-62
2022/06/18 11:10:38;;;;;;;0.53;0.23;;;;;;;20.56;56.83;100513.47;1727458;81;21022;-62
2022/06/18 11:13:09;;;;;;;0.53;0.30;;;;;;;20.50;58.33;100511.78;1709518;80;22678;-62
2022/06/18 11:15:38;;;;;;;0.50;0.50;;;;;;;20.45;57.98;100510.34;1696768;83;21046;-62
2022/06/18 11:18:22;;;;;;;2.58;0.60;;;;;;;20.48;57.68;100511.20;1702506;83;21041;-62
2022/06/18 11:21:05;;;;;;;1.32;0.62;;;;;;;20.56;57.52;100520.25;1707551;83;21650;-60
2022/06/18 11:23:36;;;;;;;4.90;0.60;;;;;;;20.60;56.84;100520.05;1725322;81;21060;-61
2022/06/18 11:26:10;;;;;;;1.30;0.68;;;;;;;20.61;56.73;100522.52;1733872;81;22123;-60
2022/06/18 11:28:42;;;;;;;1.82;0.80;;;;;;;20.63;56.93;100520.11;1732162;81;21108;-62
2022/06/18 11:31:13;;;;;;;2.08;0.75;;;;;;;20.67;57.03;100527.47;1743592;81;21005;-63
2022/06/18 11:33:46;;;;;;;1.65;0.50;;;;;;;20.68;57.12;100531.83;1722211;81;21606;-61
2022/06/18 11:36:18;;;;;;;0.93;0.60;;;;;;;20.71;57.13;100525.08;1695216;83;21093;-61
2022/06/18 11:38:57;;;;;;;0.70;0.50;;;;;;;20.73;56.93;100525.64;1699696;83;21095;-64
2022/06/18 11:41:42;;;;;;;1.45;0.20;;;;;;;20.73;56.92;100527.00;1697776;83;21398;-60
2022/06/18 11:44:19;;;;;;;1.07;0.72;;;;;;;20.69;55.71;100530.73;1701772;81;21041;-62
2022/06/18 11:47:26;;;;;;;0.40;0.40;;;;;;;20.66;54.87;100526.36;1724561;81;21123;-60
2022/06/18 11:50:04;;;;;;;0.40;0.40;;;;;;;20.68;54.94;100528.28;1736611;81;21068;-61
2022/06/18 11:53:16;;;;;;;0.78;0.20;;;;;;;20.66;55.70;100522.30;1722787;81;21588;-63
2022/06/18 11:55:49;;;;;;;1.77;0.35;;;;;;;20.66;54.79;100527.17;1732589;81;21083;-61
2022/06/18 11:58:46;;;;;;;2.47;0.47;;;;;;;20.66;54.56;100520.39;1729683;81;21352;-61
2022/06/18 12:01:38;;;;;;;2.15;0.30;;;;;;;20.69;54.29;100516.39;1717789;81;20986;-63
2022/06/18 12:04:29;;;;;;;1.27;0.30;;;;;;;20.68;53.16;100511.52;1714807;81;21049;-61
2022/06/18 12:07:31;;;;;;;1.60;0.30;;;;;;;20.69;53.51;100510.97;1708646;81;21065;-63